Strona główna
METAR-TAF:

METAR-TAF

Lotnisko :

Clearfield-Lawrence Airport

Clearfield, Pensylwania, Stany Zjednoczone

Szerokość geograficzna: 41-02-48N, Długość geograficzna: 078-24-42W, wysokość: 462 m

Aktualna obserwacja pogody

Raport powstał 40 minut temu, godzina 08:54 UTC
Wiatr 4 kt od wschodnio-północny wschód
Temperatura 5°C
Wilgotność 70%
Ciśnienie 1009 hPa
Widzialność: 16.1 km
Przerywane chmury na wysokości 4100 ft
Zachmurzenie całkowite na wysokości 5000 ft

METAR: KFIG 250854Z AUTO 07004KT 10SM BKN041 OVC050 05/00 A2981 RMK AO2 RAE32 SLP098 P0000 60000 T00500000 58012

czas: 04:34 (09:34 UTC)


TAF: brakujący

Obserwacja i prognoza pogody dla ponad 4000 lotnisk (raport METAR i TAF).

Dostępne stacje oznaczono żółtymi i czerwonymi punktami na mapie.

Najedź kursorem aby zobaczyć nazwę stacji.

Kliknij aby zobaczyć obserwacje i prognozy pogody.

Aby zmienić mapę: kliknij na zielony przycisk z czarnym krzyżykiem, aby powiększyć; na zielony przycisk z myślnikiem, aby pomniejszyć; na zielone strzałki, aby przejść do map sąsiednich.


METAR-TAF: